createdAt,value
2018-06-19T00:01:04.449Z,1002.66
2018-06-19T00:02:14.536Z,1002.64
2018-06-19T00:03:24.364Z,1002.64
2018-06-19T00:04:34.451Z,1002.62
2018-06-19T00:05:44.537Z,1002.64
2018-06-19T00:06:54.134Z,1002.59
2018-06-19T00:08:03.949Z,1002.59
2018-06-19T00:09:14.018Z,1002.59
2018-06-19T00:10:24.098Z,1002.6
2018-06-19T00:11:34.182Z,1002.62
2018-06-19T00:12:44.266Z,1002.58
2018-06-19T00:13:54.356Z,1002.58
2018-06-19T00:15:04.162Z,1002.6
2018-06-19T00:16:14.231Z,1002.57
2018-06-19T00:17:23.817Z,1002.58
2018-06-19T00:18:33.631Z,1002.51
2018-06-19T00:19:43.187Z,1002.55
2018-06-19T00:20:53.264Z,1002.55
2018-06-19T00:22:03.078Z,1002.54
2018-06-19T00:23:13.410Z,1002.53
2018-06-19T00:24:23.515Z,1002.54
2018-06-19T00:25:33.590Z,1002.57
2018-06-19T00:26:43.678Z,1002.51
2018-06-19T00:27:53.763Z,1002.57
2018-06-19T00:29:03.841Z,1002.59
2018-06-19T00:30:13.915Z,1002.6
2018-06-19T00:31:23.722Z,1002.56
2018-06-19T00:32:33.871Z,1002.55
2018-06-19T00:33:43.739Z,1002.56
2018-06-19T00:34:53.545Z,1002.59
2018-06-19T00:36:03.426Z,1002.59
2018-06-19T00:37:13.522Z,1002.61
2018-06-19T00:38:24.317Z,1002.63
2018-06-19T00:39:34.133Z,1002.58
2018-06-19T00:40:44.220Z,1002.65
2018-06-19T00:41:54.341Z,1002.65
2018-06-19T00:43:04.425Z,1002.62
2018-06-19T00:44:14.504Z,1002.66
2018-06-19T00:45:24.569Z,1002.62
2018-06-19T00:46:34.393Z,1002.66
2018-06-19T00:47:44.221Z,1002.67
2018-06-19T00:48:54.308Z,1002.68
2018-06-19T00:50:04.133Z,1002.66
2018-06-19T00:51:14.217Z,1002.68
2018-06-19T00:52:24.291Z,1002.62
2018-06-19T00:53:34.113Z,1002.69
2018-06-19T00:54:44.195Z,1002.68
2018-06-19T00:55:54.011Z,1002.71
2018-06-19T00:57:04.096Z,1002.7
2018-06-19T00:58:13.907Z,1002.74
2018-06-19T00:59:24.001Z,1002.71
2018-06-19T01:00:34.074Z,1002.75
2018-06-19T01:01:43.915Z,1002.73
2018-06-19T01:02:53.986Z,1002.74
2018-06-19T01:04:04.070Z,1002.73
2018-06-19T01:05:14.146Z,1002.77
2018-06-19T01:06:24.215Z,1002.79
2018-06-19T01:07:34.321Z,1002.8
2018-06-19T01:08:44.415Z,1002.79
2018-06-19T01:09:54.263Z,1002.76
2018-06-19T01:11:03.889Z,1002.77
2018-06-19T01:12:13.713Z,1002.78
2018-06-19T01:13:23.783Z,1002.82
2018-06-19T01:14:33.629Z,1002.83
2018-06-19T01:15:43.732Z,1002.85
2018-06-19T01:16:53.810Z,1002.84
2018-06-19T01:18:03.625Z,1002.83
2018-06-19T01:19:13.699Z,1002.83
2018-06-19T01:20:23.773Z,1002.85
2018-06-19T01:21:33.588Z,1002.86
2018-06-19T01:22:43.669Z,1002.9
2018-06-19T01:23:53.729Z,1002.88
2018-06-19T01:25:03.820Z,1002.85
2018-06-19T01:26:13.908Z,1002.88
2018-06-19T01:27:23.993Z,1002.88
2018-06-19T01:28:34.104Z,1002.92
2018-06-19T01:29:44.530Z,1002.91
2018-06-19T01:30:54.364Z,1002.89
2018-06-19T01:32:04.445Z,1002.86
2018-06-19T01:33:14.525Z,1002.86
2018-06-19T01:34:24.613Z,1002.84
2018-06-19T01:35:34.685Z,1002.85
2018-06-19T01:36:44.770Z,1002.81
2018-06-19T01:37:54.939Z,1002.88
2018-06-19T01:39:05.348Z,1002.89
2018-06-19T01:40:15.433Z,1002.84
2018-06-19T01:41:25.546Z,1002.86
2018-06-19T01:42:35.628Z,1002.9
2018-06-19T01:43:45.435Z,1002.86
2018-06-19T01:44:55.506Z,1002.88
2018-06-19T01:46:05.590Z,1002.88
2018-06-19T01:47:15.405Z,1002.87
2018-06-19T01:48:25.476Z,1002.86
2018-06-19T01:49:35.542Z,1002.86
2018-06-19T01:50:45.630Z,1002.81
2018-06-19T01:51:55.746Z,1002.81
2018-06-19T01:53:05.825Z,1002.87
2018-06-19T01:54:15.905Z,1002.83
2018-06-19T01:55:25.783Z,1002.85
2018-06-19T01:56:35.606Z,1002.9
2018-06-19T01:57:45.156Z,1002.93
2018-06-19T01:58:55.432Z,1002.89
2018-06-19T02:00:05.520Z,1002.9
2018-06-19T02:01:15.600Z,1002.89
2018-06-19T02:02:25.675Z,1002.88
2018-06-19T02:03:35.813Z,1002.89
2018-06-19T02:04:45.904Z,1002.92
2018-06-19T02:05:56.030Z,1002.93
2018-06-19T02:07:06.147Z,1002.91
2018-06-19T02:08:15.951Z,1002.93
2018-06-19T02:09:26.042Z,1002.94
2018-06-19T02:10:36.142Z,1002.93
2018-06-19T02:11:45.974Z,1002.96
2018-06-19T02:12:56.056Z,1002.93
2018-06-19T02:14:05.864Z,1002.97
2018-06-19T02:15:15.963Z,1002.93
2018-06-19T02:16:25.787Z,1002.92
2018-06-19T02:17:35.862Z,1002.95
2018-06-19T02:18:45.927Z,1002.98
2018-06-19T02:19:56.011Z,1002.97
2018-06-19T02:21:06.090Z,1002.95
2018-06-19T02:22:16.167Z,1002.95
2018-06-19T02:23:26.272Z,1002.97
2018-06-19T02:24:36.105Z,1002.96
2018-06-19T02:25:45.931Z,1002.97
2018-06-19T02:26:55.997Z,1002.99
2018-06-19T02:28:05.805Z,1003.02
2018-06-19T02:29:15.887Z,1003
2018-06-19T02:30:25.442Z,1003.01
2018-06-19T02:31:35.522Z,1003
2018-06-19T02:32:45.590Z,1003.06
2018-06-19T02:33:55.679Z,1003.06
2018-06-19T02:35:05.495Z,1003.03
2018-06-19T02:36:15.585Z,1003.07
2018-06-19T02:37:25.676Z,1003.04
2018-06-19T02:38:35.809Z,1003.11
2018-06-19T02:39:45.870Z,1003.11
2018-06-19T02:40:55.955Z,1003.05
2018-06-19T02:42:06.062Z,1003.13
2018-06-19T02:43:16.003Z,1003.09
2018-06-19T02:44:26.409Z,1003.15
2018-06-19T02:45:36.489Z,1003.15
2018-06-19T02:46:46.561Z,1003.15
2018-06-19T02:47:56.649Z,1003.16
2018-06-19T02:49:06.745Z,1003.17
2018-06-19T02:50:16.625Z,1003.14
2018-06-19T02:51:26.707Z,1003.2
2018-06-19T02:52:36.798Z,1003.2
2018-06-19T02:53:46.874Z,1003.19
2018-06-19T02:54:56.965Z,1003.21
2018-06-19T02:56:06.802Z,1003.22
2018-06-19T02:57:16.890Z,1003.2
2018-06-19T02:58:26.796Z,1003.19
2018-06-19T02:59:37.099Z,1003.18
2018-06-19T03:00:46.923Z,1003.22
2018-06-19T03:01:57.065Z,1003.2
2018-06-19T03:34:33.736Z,1003.43
2018-06-19T03:35:43.629Z,1003.45
2018-06-19T03:36:53.701Z,1003.4
2018-06-19T03:38:03.779Z,1003.43
2018-06-19T03:39:13.848Z,1003.43
2018-06-19T03:40:23.661Z,1003.45
2018-06-19T03:41:33.484Z,1003.42
2018-06-19T03:42:43.309Z,1003.47
2018-06-19T03:43:52.872Z,1003.45
2018-06-19T03:45:02.942Z,1003.43
2018-06-19T03:46:13.075Z,1003.49
2018-06-19T03:47:23.163Z,1003.49
2018-06-19T03:48:32.974Z,1003.52
2018-06-19T03:49:43.052Z,1003.51
2018-06-19T03:50:53.140Z,1003.5
2018-06-19T03:52:03.222Z,1003.54
2018-06-19T03:53:13.324Z,1003.54
2018-06-19T03:54:23.397Z,1003.47
2018-06-19T03:55:33.486Z,1003.49
2018-06-19T03:56:43.740Z,1003.52
2018-06-19T03:57:53.827Z,1003.47
2018-06-19T03:59:03.703Z,1003.47
2018-06-19T04:00:13.776Z,1003.49
2018-06-19T04:01:23.885Z,1003.53
2018-06-19T04:02:34.061Z,1003.55
2018-06-19T04:03:44.184Z,1003.56
2018-06-19T04:04:54.496Z,1003.6
2018-06-19T04:06:04.334Z,1003.56
2018-06-19T04:07:14.419Z,1003.58
2018-06-19T04:08:24.548Z,1003.61
2018-06-19T04:09:34.365Z,1003.6
2018-06-19T04:10:44.442Z,1003.56
2018-06-19T04:11:54.536Z,1003.64
2018-06-19T04:13:04.625Z,1003.63
2018-06-19T04:14:14.698Z,1003.64
2018-06-19T04:15:24.768Z,1003.63
2018-06-19T04:16:34.854Z,1003.64
2018-06-19T04:17:45.039Z,1003.66
2018-06-19T04:18:54.886Z,1004.06
2018-06-19T04:20:04.702Z,1004.58
2018-06-19T04:21:14.823Z,1004.72
2018-06-19T04:22:24.902Z,1004.72
2018-06-19T04:23:34.961Z,1004.69
2018-06-19T04:24:45.048Z,1004.65
2018-06-19T04:25:55.126Z,1004.68
2018-06-19T04:27:05.254Z,1004.71
2018-06-19T04:28:15.323Z,1004.76
2018-06-19T04:29:25.377Z,1004.69
2018-06-19T04:30:35.447Z,1004.74
2018-06-19T04:31:45.283Z,1004.7
2018-06-19T04:32:55.362Z,1004.7
2018-06-19T04:34:05.470Z,1004.58
2018-06-19T04:35:15.556Z,1004.49
2018-06-19T04:36:25.640Z,1004.37
2018-06-19T04:37:35.460Z,1004.39
2018-06-19T04:38:45.290Z,1004.37
2018-06-19T04:39:55.373Z,1004.33
2018-06-19T04:41:05.464Z,1004.28
2018-06-19T04:42:15.540Z,1004.31
2018-06-19T04:43:25.611Z,1004.32
2018-06-19T04:44:35.738Z,1004.33
2018-06-19T04:45:45.836Z,1004.34
2018-06-19T04:46:55.928Z,1004.36
2018-06-19T04:48:05.756Z,1004.44
2018-06-19T04:49:15.584Z,1004.46
2018-06-19T04:50:25.778Z,1004.57
2018-06-19T04:51:35.869Z,1004.56
2018-06-19T04:52:45.986Z,1004.54
2018-06-19T04:53:56.073Z,1004.6
2018-06-19T04:55:05.926Z,1004.65
2018-06-19T04:56:16.011Z,1004.61
2018-06-19T04:57:25.846Z,1004.69
2018-06-19T04:58:35.933Z,1004.69
2018-06-19T04:59:46.018Z,1004.74
2018-06-19T05:00:56.141Z,1004.72
2018-06-19T05:02:06.041Z,1004.75
2018-06-19T05:03:16.129Z,1004.82
2018-06-19T05:04:26.233Z,1004.79
2018-06-19T05:05:36.053Z,1004.77
2018-06-19T05:06:46.137Z,1004.72
2018-06-19T05:07:56.011Z,1004.75
2018-06-19T05:09:06.094Z,1004.67
2018-06-19T05:10:16.467Z,1004.57
2018-06-19T05:11:26.570Z,1004.55
2018-06-19T05:12:36.657Z,1004.45
2018-06-19T05:13:46.750Z,1004.49
2018-06-19T05:14:56.820Z,1004.47
2018-06-19T05:16:06.926Z,1004.55
2018-06-19T05:17:16.845Z,1004.58
2018-06-19T05:18:26.945Z,1004.64
2018-06-19T05:19:37.036Z,1004.63
2018-06-19T05:20:47.133Z,1004.64
2018-06-19T05:21:56.963Z,1004.62
2018-06-19T05:23:07.014Z,1004.67
2018-06-19T05:24:17.116Z,1005.37
2018-06-19T05:25:27.185Z,1005.78
2018-06-19T05:26:36.987Z,1005.46
2018-06-19T05:27:47.064Z,1005.41
2018-06-19T05:28:56.879Z,1005.33
2018-06-19T05:30:06.969Z,1005.07
2018-06-19T05:31:16.543Z,1005.04
2018-06-19T05:32:26.616Z,1005.26
2018-06-19T05:33:36.698Z,1005.13
2018-06-19T05:34:46.575Z,1005.04
2018-06-19T05:35:56.716Z,1005.2
2018-06-19T05:37:06.849Z,1005.17
2018-06-19T05:38:16.670Z,1005.12
2018-06-19T05:39:26.765Z,1005.03
2018-06-19T05:40:36.854Z,1004.99
2018-06-19T05:41:46.931Z,1005.06
2018-06-19T05:42:56.537Z,1005.12
2018-06-19T05:44:06.622Z,1005.15
2018-06-19T05:45:16.180Z,1005.08
2018-06-19T05:46:25.993Z,1005.13
2018-06-19T05:47:36.150Z,1005.16
2018-06-19T05:48:45.962Z,1005.16
2018-06-19T05:49:55.777Z,1005.15
2018-06-19T05:51:05.878Z,1005.09
2018-06-19T05:52:15.972Z,1004.96
2018-06-19T05:53:26.080Z,1005.01
2018-06-19T05:54:36.155Z,1005.1
2018-06-19T05:55:46.259Z,1005.03
2018-06-19T05:56:56.089Z,1005
2018-06-19T05:58:06.172Z,1004.93
2018-06-19T05:59:16.272Z,1005.03
2018-06-19T06:00:26.109Z,1005.08
2018-06-19T06:01:36.212Z,1004.99
2018-06-19T06:02:46.323Z,1004.87
2018-06-19T06:03:56.391Z,1004.88
2018-06-19T06:05:06.495Z,1004.92
2018-06-19T06:06:16.322Z,1004.89
2018-06-19T06:07:26.422Z,1004.89
2018-06-19T06:08:36.495Z,1004.84
2018-06-19T06:09:46.333Z,1004.84
2018-06-19T06:10:55.901Z,1004.86
2018-06-19T06:12:06.206Z,1004.82
2018-06-19T06:13:16.307Z,1004.83
2018-06-19T06:14:26.123Z,1004.8
2018-06-19T06:15:36.248Z,1004.84
2018-06-19T06:16:46.474Z,1004.77
2018-06-19T06:17:56.340Z,1004.8
2018-06-19T06:19:06.441Z,1004.78
2018-06-19T06:20:16.753Z,1004.77
2018-06-19T06:21:26.826Z,1004.72
2018-06-19T06:22:36.916Z,1004.82
2018-06-19T06:23:46.743Z,1004.73
2018-06-19T06:24:56.826Z,1004.74
2018-06-19T06:26:06.926Z,1004.73
2018-06-19T06:27:17.007Z,1004.71
2018-06-19T06:28:27.096Z,1004.74
2018-06-19T06:29:37.228Z,1004.66
2018-06-19T06:30:47.040Z,1004.76
2018-06-19T06:31:57.141Z,1004.77
2018-06-19T06:33:07.248Z,1004.77
2018-06-19T06:34:17.334Z,1004.75
2018-06-19T06:35:27.480Z,1004.69
2018-06-19T06:36:37.313Z,1004.68
2018-06-19T06:37:47.395Z,1004.74
2018-06-19T06:38:57.224Z,1004.74
2018-06-19T06:40:07.307Z,1004.75
2018-06-19T06:41:17.380Z,1004.76
2018-06-19T06:42:27.213Z,1004.74
2018-06-19T06:43:37.282Z,1004.76
2018-06-19T06:44:47.368Z,1004.77
2018-06-19T06:45:58.082Z,1004.72
2018-06-19T06:47:08.188Z,1004.75
2018-06-19T06:48:17.766Z,1004.74
2018-06-19T06:49:27.587Z,1004.71
2018-06-19T06:50:37.401Z,1004.69
2018-06-19T06:51:47.231Z,1004.73
2018-06-19T06:52:57.346Z,1004.71
2018-06-19T06:54:07.424Z,1004.68
2018-06-19T06:55:17.241Z,1004.62
2018-06-19T06:56:27.312Z,1004.64
2018-06-19T06:57:37.410Z,1004.61
2018-06-19T06:58:47.487Z,1004.64
2018-06-19T06:59:57.553Z,1004.6
2018-06-19T07:01:07.431Z,1004.66
2018-06-19T07:02:17.788Z,1004.62
2018-06-19T07:03:27.882Z,1004.65
2018-06-19T07:04:37.968Z,1004.62
2018-06-19T07:05:47.787Z,1004.59
2018-06-19T07:06:57.883Z,1004.55
2018-06-19T07:08:08.238Z,1004.54
2018-06-19T07:09:18.330Z,1004.48
2018-06-19T07:10:28.417Z,1004.61
2018-06-19T07:11:38.246Z,1004.59
2018-06-19T07:12:48.390Z,1004.61
2018-06-19T07:13:58.478Z,1004.63
2018-06-19T07:15:08.569Z,1004.55
2018-06-19T07:16:18.663Z,1004.57
2018-06-19T07:17:28.754Z,1004.58
2018-06-19T07:18:38.837Z,1004.54
2018-06-19T07:19:48.970Z,1004.58
2018-06-19T07:20:59.075Z,1004.54
2018-06-19T07:22:09.236Z,1004.53
2018-06-19T07:23:19.331Z,1004.53
2018-06-19T07:24:29.404Z,1004.63
2018-06-19T07:25:39.497Z,1004.56
2018-06-19T07:26:49.696Z,1004.55
2018-06-19T07:27:59.785Z,1004.51
2018-06-19T07:29:09.648Z,1004.55
2018-06-19T07:30:19.431Z,1004.59
2018-06-19T07:31:29.517Z,1004.51
2018-06-19T07:32:39.617Z,1004.49
2018-06-19T07:33:49.707Z,1004.54
2018-06-19T07:34:59.780Z,1004.49
2018-06-19T07:36:09.610Z,1004.53
2018-06-19T07:37:19.709Z,1004.44
2018-06-19T07:38:29.774Z,1004.48
2018-06-19T07:39:39.873Z,1004.5
2018-06-19T07:40:49.438Z,1004.54
2018-06-19T07:41:59.544Z,1004.54
2018-06-19T07:43:09.621Z,1004.51
2018-06-19T07:44:19.771Z,1004.57
2018-06-19T07:45:29.904Z,1004.5
2018-06-19T07:46:40.007Z,1004.47
2018-06-19T07:47:50.097Z,1004.43
2018-06-19T07:48:59.919Z,1004.55
2018-06-19T07:50:10.131Z,1004.48
2018-06-19T07:51:20.213Z,1004.52
2018-06-19T07:52:30.310Z,1004.47
2018-06-19T07:53:40.131Z,1004.46
2018-06-19T07:54:50.463Z,1004.51
2018-06-19T07:56:00.566Z,1004.49
2018-06-19T07:57:10.647Z,1004.48
2018-06-19T07:58:20.959Z,1004.5
2018-06-19T07:59:30.797Z,1004.48
2018-06-19T08:00:40.927Z,1004.5
2018-06-19T08:01:51.023Z,1004.45
2018-06-19T08:03:01.110Z,1004.45
2018-06-19T08:04:11.210Z,1004.45
2018-06-19T08:05:21.302Z,1004.4
2018-06-19T08:06:31.383Z,1004.44
2018-06-19T08:07:41.469Z,1004.39
2018-06-19T08:08:51.607Z,1004.43
2018-06-19T08:10:01.925Z,1004.43
2018-06-19T08:11:11.724Z,1004.41
2018-06-19T08:12:21.825Z,1004.41
2018-06-19T08:13:31.696Z,1004.41
2018-06-19T08:14:42.048Z,1004.38
2018-06-19T08:15:51.871Z,1004.3
2018-06-19T08:17:01.957Z,1004.31
2018-06-19T08:18:12.137Z,1004.33
2018-06-19T08:19:22.402Z,1004.38
2018-06-19T08:20:32.503Z,1004.38
2018-06-19T08:21:42.597Z,1004.43
2018-06-19T08:22:52.726Z,1004.54
2018-06-19T08:24:02.889Z,1004.4
2018-06-19T08:25:12.989Z,1004.43
2018-06-19T08:26:23.097Z,1004.4
2018-06-19T08:27:33.192Z,1004.44
2018-06-19T08:28:43.336Z,1004.47
2018-06-19T08:29:53.437Z,1004.33
2018-06-19T08:31:03.727Z,1004.35
2018-06-19T08:32:13.837Z,1004.35
2018-06-19T08:33:23.951Z,1004.36
2018-06-19T08:34:33.754Z,1004.36
2018-06-19T08:35:43.843Z,1004.32
2018-06-19T08:36:53.921Z,1004.38
2018-06-19T08:38:04.008Z,1004.4
2018-06-19T08:39:14.121Z,1004.33
2018-06-19T08:40:24.261Z,1004.36
2018-06-19T08:41:34.223Z,1004.44
2018-06-19T08:42:44.798Z,1004.41
2018-06-19T08:43:54.888Z,1004.38
2018-06-19T08:45:04.724Z,1004.34
2018-06-19T08:46:14.860Z,1004.36
2018-06-19T08:47:24.959Z,1004.31
2018-06-19T08:48:34.789Z,1004.35
2018-06-19T08:49:44.883Z,1004.38
2018-06-19T08:50:54.961Z,1004.35
2018-06-19T08:52:04.780Z,1004.38
2018-06-19T08:53:14.867Z,1004.32
2018-06-19T08:54:25.024Z,1004.31
2018-06-19T08:55:34.902Z,1004.39
2018-06-19T08:56:44.724Z,1004.33
2018-06-19T08:57:54.798Z,1004.31
2018-06-19T08:59:04.631Z,1004.46
2018-06-19T09:00:14.518Z,1004.37
2018-06-19T09:01:24.967Z,1004.29
2018-06-19T09:02:35.056Z,1004.28
2018-06-19T09:03:44.885Z,1004.28
2018-06-19T09:04:54.970Z,1004.3
2018-06-19T09:06:04.791Z,1004.27
2018-06-19T09:07:14.623Z,1004.26
2018-06-19T09:08:24.703Z,1004.31
2018-06-19T09:09:34.513Z,1004.3
2018-06-19T09:10:44.598Z,1004.38
2018-06-19T09:11:54.670Z,1004.24
2018-06-19T09:13:04.516Z,1004.21
2018-06-19T09:14:14.616Z,1004.31
2018-06-19T09:15:24.214Z,1004.21
2018-06-19T09:16:34.353Z,1004.22
2018-06-19T09:17:44.494Z,1004.31
2018-06-19T09:18:55.766Z,1004.22
2018-06-19T09:20:11.631Z,1004.29
2018-06-19T09:21:25.005Z,1004.26
2018-06-19T09:22:37.532Z,1004.28
2018-06-19T09:23:52.940Z,1004.29
2018-06-19T09:25:07.445Z,1004.33
2018-06-19T09:26:17.692Z,1004.39
2018-06-19T09:27:27.845Z,1004.28
2018-06-19T09:28:38.062Z,1004.34
2018-06-19T09:29:48.244Z,1004.36
2018-06-19T09:30:57.941Z,1004.38
2018-06-19T09:32:08.175Z,1004.26
2018-06-19T09:33:17.962Z,1004.28
2018-06-19T09:34:28.172Z,1004.2
2018-06-19T09:35:38.319Z,1004.22
2018-06-19T09:36:48.637Z,1004.19
2018-06-19T09:37:58.775Z,1004.27
2018-06-19T09:39:08.942Z,1004.21
2018-06-19T09:40:19.068Z,1004.17
2018-06-19T09:41:29.238Z,1004.34
2018-06-19T09:42:39.127Z,1004.29
2018-06-19T09:43:49.560Z,1004.39
2018-06-19T09:44:59.678Z,1004.38
2018-06-19T09:46:09.539Z,1004.29
2018-06-19T09:47:19.386Z,1004.31
2018-06-19T09:48:29.501Z,1004.3
2018-06-19T09:49:39.587Z,1004.3
2018-06-19T09:50:49.677Z,1004.25
2018-06-19T09:51:59.757Z,1004.25
2018-06-19T09:53:09.903Z,1004.19
2018-06-19T09:54:19.210Z,1004.21
2018-06-19T09:55:29.375Z,1004.22
2018-06-19T09:56:39.475Z,1004.2
2018-06-19T09:57:49.562Z,1004.18
2018-06-19T09:58:59.461Z,1004.19
2018-06-19T10:00:09.992Z,1004.31
2018-06-19T10:01:20.091Z,1004.23
2018-06-19T10:02:30.182Z,1004.21
2018-06-19T10:03:40.280Z,1004.25
2018-06-19T10:04:50.126Z,1004.18
2018-06-19T10:06:00.245Z,1004.17
2018-06-19T10:07:10.464Z,1004.31
2018-06-19T10:08:20.560Z,1004.26
2018-06-19T10:09:30.635Z,1004.19
2018-06-19T10:10:40.721Z,1004.2
2018-06-19T10:11:50.891Z,1004.08
2018-06-19T10:13:01.438Z,1004.11
2018-06-19T10:14:11.521Z,1004.1
2018-06-19T10:15:21.360Z,1004.13
2018-06-19T10:16:31.438Z,1004.14
2018-06-19T10:17:41.525Z,1004.05
2018-06-19T10:18:51.614Z,1004.04
2018-06-19T10:20:01.714Z,1004.18
2018-06-19T10:21:11.816Z,1004.23
2018-06-19T10:22:21.909Z,1004.23
2018-06-19T10:23:31.735Z,1004.13
2018-06-19T10:24:41.826Z,1004.16
2018-06-19T10:25:51.918Z,1004.12
2018-06-19T10:27:02.016Z,1004.17
2018-06-19T10:28:11.831Z,1004.2
2018-06-19T10:29:21.660Z,1004.21
2018-06-19T10:30:31.592Z,1004.22
2018-06-19T10:31:41.687Z,1004.16
2018-06-19T10:32:51.769Z,1004.13
2018-06-19T10:34:01.845Z,1004.23
2018-06-19T10:35:11.426Z,1004.16
2018-06-19T10:36:21.521Z,1004.2
2018-06-19T10:37:31.351Z,1004.1
2018-06-19T10:38:41.170Z,1004.08
2018-06-19T10:39:51.254Z,1004.11
2018-06-19T10:41:01.163Z,1004.06
2018-06-19T10:42:11.330Z,1004.01
2018-06-19T10:43:21.426Z,1004.03
2018-06-19T10:44:31.525Z,1003.95
2018-06-19T10:45:41.368Z,1004.03
2018-06-19T10:46:51.549Z,1003.97
2018-06-19T10:48:01.651Z,1003.88
2018-06-19T10:49:11.742Z,1004.09
2018-06-19T10:50:21.846Z,1003.97
2018-06-19T10:51:31.676Z,1003.91
2018-06-19T10:52:41.799Z,1003.91
2018-06-19T10:53:51.856Z,1004.03
2018-06-19T10:55:01.685Z,1003.98
2018-06-19T10:56:11.548Z,1003.97
2018-06-19T10:57:21.393Z,1003.92
2018-06-19T10:58:31.496Z,1004.01
2018-06-19T10:59:41.653Z,1004.05
2018-06-19T11:00:51.749Z,1004.02
2018-06-19T11:02:01.851Z,1004.02
2018-06-19T11:03:11.683Z,1003.99
2018-06-19T11:04:21.517Z,1003.89
2018-06-19T11:05:31.656Z,1003.96
2018-06-19T11:06:41.746Z,1004.02
2018-06-19T11:07:51.859Z,1004.01
2018-06-19T11:09:02.058Z,1003.94
2018-06-19T11:10:11.886Z,1004.03
2018-06-19T11:11:21.700Z,1003.96
2018-06-19T11:12:31.523Z,1003.86
2018-06-19T11:13:41.395Z,1003.83
2018-06-19T11:14:51.474Z,1003.87
2018-06-19T11:16:01.516Z,1003.86
2018-06-19T11:17:11.600Z,1003.95
2018-06-19T11:18:21.707Z,1003.9
2018-06-19T11:19:31.810Z,1003.86
2018-06-19T11:20:41.895Z,1003.85
2018-06-19T11:21:51.734Z,1003.85
2018-06-19T11:23:01.836Z,1003.81
2018-06-19T11:24:11.934Z,1003.85
2018-06-19T11:25:21.785Z,1003.87
2018-06-19T11:26:31.904Z,1003.9
2018-06-19T11:27:41.987Z,1003.9
2018-06-19T11:28:52.096Z,1003.93
2018-06-19T11:30:02.509Z,1003.99
2018-06-19T11:31:12.600Z,1003.83
2018-06-19T11:32:22.180Z,1003.86
2018-06-19T11:33:32.269Z,1003.94
2018-06-19T11:34:42.412Z,1003.85
2018-06-19T11:35:52.524Z,1003.77
2018-06-19T11:37:02.622Z,1003.75
2018-06-19T11:38:12.463Z,1003.68
2018-06-19T11:39:22.592Z,1003.82
2018-06-19T11:40:32.699Z,1003.85
2018-06-19T11:41:42.525Z,1003.88
2018-06-19T11:42:52.614Z,1003.79
2018-06-19T11:44:02.462Z,1003.78
2018-06-19T11:45:12.605Z,1003.77
2018-06-19T11:46:22.427Z,1003.86
2018-06-19T11:47:39.168Z,1003.82
2018-06-19T11:49:10.671Z,1003.89
2018-06-19T11:50:20.790Z,1003.94
2018-06-19T11:51:30.886Z,1003.88
2018-06-19T11:52:40.971Z,1003.89
2018-06-19T11:53:51.046Z,1003.82
2018-06-19T11:55:01.110Z,1003.86
2018-06-19T11:56:10.946Z,1003.86
2018-06-19T11:57:21.040Z,1003.8
2018-06-19T11:58:31.153Z,1003.81
2018-06-19T11:59:40.988Z,1003.81
2018-06-19T12:00:51.144Z,1003.84
2018-06-19T12:02:01.278Z,1003.72
2018-06-19T12:03:11.411Z,1003.82
2018-06-19T12:04:21.494Z,1003.7
2018-06-19T12:05:31.071Z,1003.79
2018-06-19T12:06:41.180Z,1003.75
2018-06-19T12:07:51.555Z,1003.73
2018-06-19T12:09:01.874Z,1003.77
2018-06-19T12:10:11.964Z,1003.69
2018-06-19T12:11:22.140Z,1003.63
2018-06-19T12:12:32.233Z,1003.72
2018-06-19T12:13:42.302Z,1003.61
2018-06-19T12:14:52.412Z,1003.61
2018-06-19T12:16:02.524Z,1003.67
2018-06-19T12:17:12.494Z,1003.64
2018-06-19T12:18:22.625Z,1003.63
2018-06-19T12:19:32.776Z,1003.66
2018-06-19T12:20:42.874Z,1003.55
2018-06-19T12:21:52.976Z,1003.56
2018-06-19T12:23:03.093Z,1003.55
2018-06-19T12:24:13.180Z,1003.53
2018-06-19T12:25:23.328Z,1003.58
2018-06-19T12:26:33.158Z,1003.63
2018-06-19T12:27:43.292Z,1003.62
2018-06-19T12:28:53.117Z,1003.61
2018-06-19T12:30:03.191Z,1003.63
2018-06-19T12:31:13.285Z,1003.68
2018-06-19T12:32:23.431Z,1003.63
2018-06-19T12:33:33.561Z,1003.64
2018-06-19T12:34:43.136Z,1003.55
2018-06-19T12:35:53.259Z,1003.58
2018-06-19T12:37:03.467Z,1003.55
2018-06-19T12:38:13.565Z,1003.46
2018-06-19T12:39:23.684Z,1003.58
2018-06-19T12:40:33.801Z,1003.55
2018-06-19T12:41:43.907Z,1003.57
2018-06-19T12:42:54.096Z,1003.54
2018-06-19T12:44:04.201Z,1003.46
2018-06-19T12:45:14.083Z,1003.45
2018-06-19T12:46:24.203Z,1003.51
2018-06-19T12:47:34.631Z,1003.51
2018-06-19T12:48:44.725Z,1003.51
2018-06-19T12:49:54.617Z,1003.51
2018-06-19T12:51:04.776Z,1003.32
2018-06-19T12:52:14.887Z,1003.41
2018-06-19T12:53:24.467Z,1003.42
2018-06-19T12:54:34.607Z,1003.36
2018-06-19T12:55:44.704Z,1003.39
2018-06-19T12:56:54.825Z,1003.4
2018-06-19T12:58:04.941Z,1003.39
2018-06-19T12:59:15.014Z,1003.3
2018-06-19T13:00:25.141Z,1003.34
2018-06-19T13:01:34.954Z,1003.29
2018-06-19T13:02:45.033Z,1003.37
2018-06-19T13:03:55.149Z,1003.38
2018-06-19T13:05:05.225Z,1003.34
2018-06-19T13:06:15.361Z,1003.27
2018-06-19T13:07:25.467Z,1003.3
2018-06-19T13:08:35.577Z,1003.25
2018-06-19T13:09:45.664Z,1003.29
2018-06-19T13:10:55.505Z,1003.33
2018-06-19T13:12:05.733Z,1003.24
2018-06-19T13:13:15.818Z,1003.22
2018-06-19T13:14:25.914Z,1003.24
2018-06-19T13:15:35.996Z,1003.28
2018-06-19T13:16:46.093Z,1003.3
2018-06-19T13:17:56.204Z,1003.23
2018-06-19T13:19:06.045Z,1003.22
2018-06-19T13:20:16.148Z,1003.21
2018-06-19T13:21:25.720Z,1003.22
2018-06-19T13:22:35.807Z,1003.18
2018-06-19T13:23:46.025Z,1003.14
2018-06-19T13:24:56.186Z,1003.18
2018-06-19T13:26:06.264Z,1003.09
2018-06-19T13:27:16.394Z,1003.08
2018-06-19T13:28:26.480Z,1003.09
2018-06-19T13:29:36.628Z,1003.13
2018-06-19T13:30:46.730Z,1003.07
2018-06-19T13:31:56.538Z,1003.16
2018-06-19T13:33:06.628Z,1003.09
2018-06-19T13:34:16.724Z,1003.11
2018-06-19T13:35:26.864Z,1003.09
2018-06-19T13:36:37.169Z,1003.15
2018-06-19T13:37:47.268Z,1003.09
2018-06-19T13:38:57.371Z,1003.05
2018-06-19T13:40:07.451Z,1003.04
2018-06-19T13:41:17.590Z,1003.05
2018-06-19T13:42:27.691Z,1003.03
2018-06-19T13:43:37.782Z,1003.06
2018-06-19T13:44:47.620Z,1003.05
2018-06-19T13:45:57.460Z,1002.98
2018-06-19T13:47:07.593Z,1002.98
2018-06-19T13:48:17.414Z,1002.95
2018-06-19T13:49:27.531Z,1003.09
2018-06-19T13:50:37.744Z,1003
2018-06-19T13:51:47.850Z,1002.87
2018-06-19T13:52:57.958Z,1003.02
2018-06-19T13:54:08.016Z,1002.84
2018-06-19T13:55:18.129Z,1002.86
2018-06-19T13:56:28.202Z,1002.96
2018-06-19T13:57:38.045Z,1002.82
2018-06-19T13:58:48.148Z,1002.86
2018-06-19T13:59:57.970Z,1002.86
2018-06-19T14:01:07.532Z,1002.94
2018-06-19T14:02:17.636Z,1002.85
2018-06-19T14:03:27.729Z,1002.9
2018-06-19T14:04:37.557Z,1002.8
2018-06-19T14:05:47.683Z,1002.86
2018-06-19T14:06:57.764Z,1002.83
2018-06-19T14:08:07.992Z,1002.81
2018-06-19T14:09:18.464Z,1002.86
2018-06-19T14:10:28.619Z,1002.83
2018-06-19T14:11:38.730Z,1002.84
2018-06-19T14:12:48.813Z,1002.88
2018-06-19T14:13:58.693Z,1002.77
2018-06-19T14:15:08.564Z,1002.8
2018-06-19T14:16:18.729Z,1002.84
2018-06-19T14:17:28.558Z,1002.76
2018-06-19T14:18:38.462Z,1002.76
2018-06-19T14:19:49.011Z,1002.81
2018-06-19T14:20:59.126Z,1002.75
2018-06-19T14:22:09.350Z,1002.83
2018-06-19T14:23:19.456Z,1002.71
2018-06-19T14:24:29.550Z,1002.84
2018-06-19T14:25:39.665Z,1002.81
2018-06-19T14:26:49.822Z,1002.95
2018-06-19T14:27:59.940Z,1002.87
2018-06-19T14:29:10.115Z,1002.88
2018-06-19T14:30:19.967Z,1002.82
2018-06-19T14:31:30.061Z,1002.86
2018-06-19T14:32:40.194Z,1002.84
2018-06-19T14:33:50.310Z,1002.87
2018-06-19T14:35:00.436Z,1002.97
2018-06-19T14:36:10.567Z,1002.86
2018-06-19T14:37:20.412Z,1002.79
2018-06-19T14:38:30.489Z,1002.83
2018-06-19T14:39:40.567Z,1002.79
2018-06-19T14:40:50.751Z,1002.77
2018-06-19T14:42:00.584Z,1002.76